< < Back
Terminal Aerodrome Forecast


Current Version              Previous Versions:   1  2  3  4  5  6  7  8  9  

Terminal Aerodrome Forecast

668
FTUS42 KCHS 231720
TAFSAV
TAF
KSAV 231720Z 2318/2418 09010KT P6SM VCTS SCT025 BKN035CB
     FM232100 09010KT P6SM BKN040
     FM240000 07004KT P6SM SCT030=

Latest METAR

260
SAUS80 KWBC 241000 CCA
MTRSAV
METAR KSAV 240953Z 02006KT 10SM FEW250 23/21 A3020 RMK AO2 SLP224
T02280211


USA.gov is the U.S. government's official web portal to all federal, state and local government web resources and services.